Time;durP1;ratioP1;P1;durP2;ratioP2;P2;SDS_P1;SDS_P2;PMS_P1;PMS_P2;Temp;Humidity;BMP_temperature;BMP_pressure;BME280_temperature;BME280_humidity;BME280_pressure;Samples;Min_cycle;Max_cycle;Signal;HPM_P1;HPM_P2
2022/08/04 00:03:01;;;;;;;0.67;0.63;;;;;;;24.62;53.39;95239.97;5050273;28;20231;-66
2022/08/04 00:05:30;;;;;;;0.13;0.13;;;;;;;24.41;53.67;95244.66;5049619;28;20206;-68
2022/08/04 00:08:19;;;;;;;1.07;0.87;;;;;;;24.59;53.28;95251.38;5049140;28;20242;-66
2022/08/04 00:10:53;;;;;;;0.23;0.23;;;;;;;24.65;53.31;95239.31;5049413;28;21000;-64
2022/08/04 00:13:26;;;;;;;0.17;0.17;;;;;;;24.74;52.77;95237.31;5049264;28;20202;-64
2022/08/04 00:15:57;;;;;;;0.60;0.50;;;;;;;24.69;50.19;95240.19;5048189;28;20227;-70
2022/08/04 00:18:40;;;;;;;2.10;0.37;;;;;;;24.43;51.13;95238.97;5049371;28;20201;-68
2022/08/04 00:21:12;;;;;;;0.40;0.40;;;;;;;23.82;53.03;95243.38;5030801;28;20224;-64
2022/08/04 00:23:44;;;;;;;0.97;0.73;;;;;;;23.98;52.64;95233.63;5041793;28;20655;-67
2022/08/04 00:26:32;;;;;;;0.10;0.10;;;;;;;24.00;53.00;95237.56;5050404;28;20226;-67
2022/08/04 00:28:59;;;;;;;0.20;0.20;;;;;;;23.91;52.65;95236.06;5036115;28;20209;-67
2022/08/04 00:31:27;;;;;;;0.10;0.10;;;;;;;23.55;52.68;95234.06;5035652;28;20197;-67
2022/08/04 00:34:14;;;;;;;0.73;0.73;;;;;;;23.81;52.33;95231.13;5049681;28;20208;-66
2022/08/04 00:36:44;;;;;;;1.33;1.03;;;;;;;23.91;52.98;95238.72;5050472;28;20192;-66
2022/08/04 00:39:13;;;;;;;0.27;0.27;;;;;;;23.97;53.17;95240.09;5050688;28;20219;-64
2022/08/04 00:42:05;;;;;;;0.57;0.57;;;;;;;24.11;53.32;95240.59;5029978;28;20193;-68
2022/08/04 00:44:49;;;;;;;1.03;0.70;;;;;;;24.16;52.98;95253.00;5029415;28;20253;-69
2022/08/04 00:47:40;;;;;;;0.40;0.40;;;;;;;24.13;52.82;95245.63;5039791;28;20679;-67
2022/08/04 00:50:15;;;;;;;0.50;0.50;;;;;;;24.09;53.08;95243.59;5049637;28;20246;-65
2022/08/04 00:53:04;;;;;;;1.33;1.07;;;;;;;24.11;52.65;95245.94;5049600;28;20291;-65
2022/08/04 00:55:56;;;;;;;0.60;0.60;;;;;;;23.96;52.71;95247.34;5050059;28;20196;-66
2022/08/04 00:59:00;;;;;;;0.20;0.20;;;;;;;24.10;50.89;95244.41;5039240;28;20201;-65
2022/08/04 01:01:36;;;;;;;0.67;0.50;;;;;;;24.05;51.46;95247.25;5044328;28;20204;-64
2022/08/04 01:04:14;;;;;;;0.33;0.33;;;;;;;23.92;51.78;95259.06;5053223;28;20204;-65
2022/08/04 01:07:11;;;;;;;0.60;0.60;;;;;;;24.07;51.39;95256.53;5040098;28;20205;-66
2022/08/04 01:10:00;;;;;;;18.63;0.63;;;;;;;23.68;51.09;95256.28;5032717;28;20342;-63
2022/08/04 01:12:30;;;;;;;0.10;0.10;;;;;;;23.73;51.67;95256.88;5050537;28;20612;-68
2022/08/04 01:15:16;;;;;;;0.73;0.73;;;;;;;23.67;51.40;95263.53;5053132;28;20197;-67
2022/08/04 01:18:06;;;;;;;0.40;0.40;;;;;;;23.99;50.86;95265.44;5052806;28;20203;-65
2022/08/04 01:20:58;;;;;;;0.37;0.37;;;;;;;23.84;51.21;95267.94;5038796;28;20194;-67
2022/08/04 01:24:03;;;;;;;0.30;0.30;;;;;;;23.83;51.80;95258.34;5052785;28;20220;-67
2022/08/04 01:26:45;;;;;;;0.20;0.20;;;;;;;23.74;51.36;95257.66;5040057;28;20228;-69
2022/08/04 01:29:26;;;;;;;0.40;0.40;;;;;;;23.90;50.65;95245.22;5038229;28;20239;-66
2022/08/04 01:32:18;;;;;;;0.77;0.73;;;;;;;23.90;50.80;95242.53;5052416;28;20196;-67
2022/08/04 01:35:22;;;;;;;1.57;1.00;;;;;;;22.94;52.64;95248.94;5052256;28;20243;-64
2022/08/04 01:38:22;;;;;;;0.20;0.20;;;;;;;22.89;53.44;95251.81;5046888;28;20672;-69
2022/08/04 01:40:54;;;;;;;1.37;0.90;;;;;;;22.89;53.74;95257.16;5045909;28;20193;-65
2022/08/04 01:43:22;;;;;;;0.50;0.50;;;;;;;23.35;53.16;95255.47;5052600;28;20663;-68
2022/08/04 01:45:55;;;;;;;0.73;0.73;;;;;;;23.37;52.72;95258.59;5052353;28;20233;-69
2022/08/04 01:48:24;;;;;;;0.20;0.20;;;;;;;23.72;52.26;95259.88;5046821;28;20586;-67
2022/08/04 01:50:52;;;;;;;0.50;0.50;;;;;;;23.79;51.51;95265.47;5044470;28;20232;-67
2022/08/04 01:53:20;;;;;;;0.30;0.30;;;;;;;23.82;51.54;95254.09;5051426;28;20644;-65
2022/08/04 01:55:50;;;;;;;0.20;0.20;;;;;;;23.70;52.16;95262.09;5051983;28;20656;-65
2022/08/04 01:58:23;;;;;;;3.37;0.97;;;;;;;23.68;52.06;95259.75;5051743;28;20672;-68
2022/08/04 02:01:03;;;;;;;0.40;0.40;;;;;;;23.68;51.80;95258.97;5037999;28;20189;-64
2022/08/04 02:03:37;;;;;;;0.40;0.40;;;;;;;23.74;51.71;95253.06;5051998;28;20263;-67
2022/08/04 02:06:48;;;;;;;0.50;0.50;;;;;;;23.75;51.90;95253.84;5052019;28;20199;-67
2022/08/04 02:09:25;;;;;;;0.83;0.73;;;;;;;23.77;51.93;95259.66;5037368;28;20609;-69
2022/08/04 02:12:04;;;;;;;0.33;0.33;;;;;;;23.68;52.00;95254.41;5038890;28;20209;-67
2022/08/04 02:14:54;;;;;;;0.37;0.37;;;;;;;23.63;52.32;95245.78;5040220;28;20658;-66
2022/08/04 02:17:29;;;;;;;0.67;0.60;;;;;;;23.71;52.25;95247.59;5051446;28;20580;-68
2022/08/04 02:20:02;;;;;;;0.30;0.30;;;;;;;23.81;51.94;95250.63;5052181;28;20261;-65
2022/08/04 02:22:32;;;;;;;0.77;0.77;;;;;;;23.71;52.05;95244.91;5035442;28;20207;-65
2022/08/04 02:25:23;;;;;;;0.40;0.40;;;;;;;23.31;53.04;95241.16;5031327;28;20271;-66
2022/08/04 02:27:52;;;;;;;0.20;0.20;;;;;;;23.34;52.85;95243.97;5045114;28;20667;-69
2022/08/04 02:30:56;;;;;;;0.30;0.30;;;;;;;23.61;52.44;95248.00;5043387;28;20235;-68
2022/08/04 02:33:34;;;;;;;0.47;0.30;;;;;;;23.54;52.55;95245.09;5037400;28;20200;-66
2022/08/04 02:36:04;;;;;;;0.40;0.40;;;;;;;23.76;51.97;95245.50;5051780;28;20298;-69
2022/08/04 02:38:41;;;;;;;0.87;0.70;;;;;;;23.77;52.16;95251.63;5037362;28;20725;-68
2022/08/04 02:41:10;;;;;;;0.30;0.30;;;;;;;23.71;51.98;95250.25;5051769;28;20214;-68
2022/08/04 02:43:38;;;;;;;2.07;0.90;;;;;;;23.75;51.86;95246.63;5031599;28;20205;-69
2022/08/04 02:46:20;;;;;;;0.50;0.50;;;;;;;23.65;51.13;95254.28;5045188;28;20200;-69
2022/08/04 02:48:49;;;;;;;0.20;0.20;;;;;;;23.37;51.00;95254.03;5051140;28;20188;-66
2022/08/04 02:51:23;;;;;;;0.73;0.73;;;;;;;23.44;50.97;95253.50;5051522;28;20678;-65
2022/08/04 02:53:54;;;;;;;0.10;0.10;;;;;;;23.36;51.40;95246.31;5045089;28;20211;-70
2022/08/04 02:56:23;;;;;;;0.30;0.30;;;;;;;23.33;51.52;95257.66;5051087;28;20390;-64
2022/08/04 02:58:55;;;;;;;0.77;0.77;;;;;;;23.19;51.48;95254.44;5050483;28;20193;-67
2022/08/04 03:01:22;;;;;;;0.50;0.50;;;;;;;22.92;52.51;95253.84;5048994;28;20208;-67
2022/08/04 03:04:18;;;;;;;0.23;0.23;;;;;;;22.71;52.82;95231.66;5050778;28;20199;-66
2022/08/04 03:07:09;;;;;;;0.40;0.40;;;;;;;23.03;52.29;95254.22;5037036;28;20204;-66
2022/08/04 03:09:50;;;;;;;0.30;0.30;;;;;;;22.92;53.15;95263.72;5039225;28;20213;-65
2022/08/04 03:12:54;;;;;;;0.20;0.20;;;;;;;23.09;52.11;95260.97;5048238;28;20670;-68
2022/08/04 03:15:51;;;;;;;0.40;0.40;;;;;;;23.14;51.39;95266.91;5044968;28;20200;-67
2022/08/04 03:18:39;;;;;;;0.20;0.20;;;;;;;22.96;50.33;95259.31;5045683;28;20254;-68
2022/08/04 03:21:14;;;;;;;0.23;0.23;;;;;;;22.51;52.26;95259.06;5050595;28;20439;-66
2022/08/04 03:24:19;;;;;;;0.40;0.40;;;;;;;22.76;52.02;95255.50;5050434;28;20242;-65
2022/08/04 03:26:48;;;;;;;0.63;0.60;;;;;;;23.12;51.27;95258.41;5030592;28;20228;-66
2022/08/04 03:29:38;;;;;;;1.17;0.80;;;;;;;22.93;52.50;95255.41;5046306;28;20516;-67
2022/08/04 03:32:20;;;;;;;1.27;1.17;;;;;;;23.07;51.99;95250.59;5049140;28;20211;-67
2022/08/04 03:35:16;;;;;;;0.80;0.80;;;;;;;23.31;51.76;95260.69;5044516;28;20282;-69
2022/08/04 03:38:04;;;;;;;1.60;0.70;;;;;;;23.17;51.69;95263.56;5046616;28;20196;-72
2022/08/04 03:40:39;;;;;;;1.57;1.47;;;;;;;23.27;52.04;95258.94;5050628;28;20185;-67
2022/08/04 03:43:22;;;;;;;2.17;1.97;;;;;;;23.05;52.63;95258.16;5036213;28;20651;-65
2022/08/04 03:46:28;;;;;;;0.40;0.40;;;;;;;23.06;52.58;95257.03;5049970;28;20227;-67
2022/08/04 03:49:22;;;;;;;0.67;0.67;;;;;;;23.13;52.22;95254.66;5040414;28;20255;-65
2022/08/04 03:55:37;;;;;;;0.33;0.33;;;;;;;22.76;54.46;95260.84;5051418;28;20311;-65
2022/08/04 03:58:23;;;;;;;0.53;0.43;;;;;;;22.76;54.82;95266.19;5029959;28;20676;-65
2022/08/04 04:01:36;;;;;;;0.47;0.47;;;;;;;22.64;54.82;95263.44;5037651;28;20195;-69
2022/08/04 04:04:53;;;;;;;0.40;0.40;;;;;;;23.05;53.75;95266.19;5049882;28;20192;-70
2022/08/04 04:07:37;;;;;;;1.43;1.33;;;;;;;22.75;54.37;95264.63;5043364;28;20645;-67
2022/08/04 04:10:42;;;;;;;0.40;0.40;;;;;;;22.83;54.08;95266.47;5048968;28;20224;-70
2022/08/04 04:13:31;;;;;;;1.43;1.33;;;;;;;22.72;54.71;95265.25;5032407;28;20200;-65
2022/08/04 04:16:09;;;;;;;0.17;0.17;;;;;;;22.58;54.66;95270.06;5048755;28;20206;-67
2022/08/04 04:19:05;;;;;;;3.30;1.93;;;;;;;23.07;53.38;95279.22;5047230;28;20200;-64
2022/08/04 04:21:55;;;;;;;0.60;0.60;;;;;;;22.71;53.86;95279.75;5034636;28;20197;-70
2022/08/04 04:24:34;;;;;;;0.63;0.63;;;;;;;22.58;54.52;95288.75;5026996;28;20246;-67
2022/08/04 04:27:33;;;;;;;1.17;1.10;;;;;;;23.08;52.90;95273.53;5046415;28;20323;-66
2022/08/04 04:30:02;;;;;;;0.30;0.30;;;;;;;22.98;53.64;95268.59;5041426;28;20224;-66
2022/08/04 04:33:07;;;;;;;2.10;1.60;;;;;;;23.04;54.07;95282.53;5047344;28;20227;-67
2022/08/04 04:36:02;;;;;;;5.33;4.03;;;;;;;23.43;53.19;95273.34;5034811;28;20228;-67
2022/08/04 04:38:40;;;;;;;1.93;1.83;;;;;;;23.42;53.59;95275.22;5052552;28;20590;-65
2022/08/04 04:41:20;;;;;;;2.97;2.77;;;;;;;23.40;52.63;95273.97;5039156;28;20192;-67
2022/08/04 04:44:05;;;;;;;6.27;3.07;;;;;;;23.34;52.82;95275.28;5052096;28;20199;-66
2022/08/04 04:47:14;;;;;;;1.37;1.27;;;;;;;23.22;53.17;95280.53;5052497;28;20195;-65
2022/08/04 04:49:53;;;;;;;7.70;2.53;;;;;;;23.61;52.43;95290.81;5045287;28;20739;-68
2022/08/04 04:52:27;;;;;;;0.67;0.67;;;;;;;23.45;53.23;95279.16;5033975;28;20220;-67
2022/08/04 04:55:19;;;;;;;7.83;2.40;;;;;;;23.50;53.52;95278.94;5052282;28;20200;-68
2022/08/04 04:57:50;;;;;;;8.20;5.13;;;;;;;23.38;53.59;95281.53;5032470;28;20634;-66
2022/08/04 05:00:24;;;;;;;10.17;7.40;;;;;;;23.66;52.74;95287.94;5047174;28;20280;-72
2022/08/04 05:02:56;;;;;;;0.87;0.87;;;;;;;23.37;54.23;95282.66;5044129;28;20197;-68
2022/08/04 05:05:43;;;;;;;0.80;0.80;;;;;;;22.71;56.42;95277.06;5032497;28;20254;-66
2022/08/04 05:08:31;;;;;;;2.53;1.13;;;;;;;22.73;56.42;95288.22;5042170;28;20625;-67
2022/08/04 05:11:43;;;;;;;7.27;1.63;;;;;;;23.01;55.09;95289.31;5039992;28;20626;-65
2022/08/04 05:14:19;;;;;;;1.80;1.43;;;;;;;22.90;56.37;95293.47;5052807;28;20204;-65
2022/08/04 05:17:25;;;;;;;0.80;0.80;;;;;;;22.96;56.79;95292.19;5044157;28;20204;-66
2022/08/04 05:20:47;;;;;;;0.57;0.57;;;;;;;23.49;54.12;95285.38;5052838;28;20204;-65
2022/08/04 05:23:21;;;;;;;3.33;1.53;;;;;;;23.64;54.34;95290.16;5043686;28;20201;-63
2022/08/04 05:25:54;;;;;;;0.87;0.77;;;;;;;23.16;56.42;95290.63;5046007;28;20747;-67
2022/08/04 05:28:35;;;;;;;0.33;0.33;;;;;;;23.55;54.52;95292.13;5052714;28;20235;-65
2022/08/04 05:31:24;;;;;;;6.77;2.30;;;;;;;24.12;52.12;95293.06;5051051;28;20228;-64
2022/08/04 05:34:06;;;;;;;5.30;2.10;;;;;;;24.25;52.15;95296.53;5052801;28;20202;-66
2022/08/04 05:36:42;;;;;;;0.80;0.80;;;;;;;24.33;52.03;95291.06;5051335;28;20697;-66
2022/08/04 05:39:20;;;;;;;5.17;1.70;;;;;;;24.19;53.11;95295.19;5052207;28;20223;-65
2022/08/04 05:41:49;;;;;;;0.20;0.20;;;;;;;24.59;50.79;95283.53;5037305;28;20718;-66
2022/08/04 05:44:25;;;;;;;0.80;0.80;;;;;;;24.92;49.37;95291.50;5052229;28;20770;-66
2022/08/04 05:46:55;;;;;;;1.93;1.43;;;;;;;25.01;49.39;95289.47;5047574;28;20254;-66
2022/08/04 05:49:24;;;;;;;2.40;2.23;;;;;;;24.38;52.00;95296.22;5044611;28;20269;-65
2022/08/04 05:51:54;;;;;;;0.53;0.53;;;;;;;24.70;51.74;95294.59;5052314;28;20224;-68
2022/08/04 05:54:23;;;;;;;1.50;1.40;;;;;;;24.67;51.14;95290.66;5052351;28;20189;-68
2022/08/04 05:56:52;;;;;;;0.30;0.30;;;;;;;24.87;50.62;95289.03;5051770;28;20231;-66
2022/08/04 05:59:19;;;;;;;0.60;0.60;;;;;;;25.15;49.67;95291.78;5052051;28;20643;-66
2022/08/04 06:01:47;;;;;;;11.23;1.07;;;;;;;24.94;51.86;95300.75;5052433;28;20212;-67
2022/08/04 06:04:29;;;;;;;0.40;0.40;;;;;;;25.07;50.40;95305.00;5039759;28;20554;-65
2022/08/04 06:06:56;;;;;;;1.17;1.10;;;;;;;24.96;50.12;95301.19;5051249;28;20716;-66
2022/08/04 06:09:23;;;;;;;0.70;0.70;;;;;;;25.14;50.99;95303.66;5038437;28;20254;-66
2022/08/04 06:11:52;;;;;;;1.50;1.40;;;;;;;24.47;51.48;95302.25;5051584;28;20220;-70
2022/08/04 06:14:38;;;;;;;0.77;0.77;;;;;;;24.76;50.22;95291.38;5038184;28;20847;-66
2022/08/04 06:17:07;;;;;;;1.03;1.00;;;;;;;25.21;49.48;95293.13;5038151;28;20304;-66
2022/08/04 06:19:56;;;;;;;0.93;0.93;;;;;;;25.05;49.76;95293.81;5041295;28;20564;-67
2022/08/04 06:22:48;;;;;;;0.43;0.43;;;;;;;25.39;48.78;95294.47;5037435;28;20189;-66
2022/08/04 06:25:20;;;;;;;1.30;1.30;;;;;;;24.86;51.39;95290.94;5041153;28;20228;-65
2022/08/04 06:27:48;;;;;;;0.83;0.83;;;;;;;25.28;50.42;95299.50;5047956;28;20262;-67
2022/08/04 06:30:18;;;;;;;3.17;1.73;;;;;;;25.47;49.48;95307.00;5041214;28;20217;-65
2022/08/04 06:32:54;;;;;;;0.33;0.30;;;;;;;25.68;49.12;95302.22;5047616;28;20198;-65
2022/08/04 06:35:31;;;;;;;0.43;0.43;;;;;;;25.33;49.11;95306.53;5051314;28;20196;-68
2022/08/04 06:37:59;;;;;;;0.63;0.63;;;;;;;25.07;51.95;95307.66;5051233;28;20648;-64
2022/08/04 06:40:28;;;;;;;1.30;1.20;;;;;;;24.63;53.15;95300.50;5040854;28;20252;-67
2022/08/04 06:43:02;;;;;;;1.43;1.33;;;;;;;24.96;52.47;95303.88;5048122;28;20188;-69
2022/08/04 06:45:30;;;;;;;1.30;1.07;;;;;;;25.34;50.90;95302.72;5049594;28;20278;-67
2022/08/04 06:48:00;;;;;;;0.73;0.73;;;;;;;25.28;50.33;95296.03;5051105;28;20231;-66
2022/08/04 06:50:28;;;;;;;0.63;0.63;;;;;;;25.66;49.58;95304.47;5051094;28;20707;-66
2022/08/04 06:53:16;;;;;;;1.50;1.40;;;;;;;25.57;50.28;95307.28;5052299;28;20573;-67
2022/08/04 06:55:45;;;;;;;1.37;1.27;;;;;;;24.89;51.61;95310.91;5050790;28;20260;-67
2022/08/04 06:58:13;;;;;;;1.83;1.50;;;;;;;24.95;52.18;95299.66;5037458;28;20205;-66
2022/08/04 07:00:43;;;;;;;1.07;1.07;;;;;;;24.91;52.31;95304.09;5049430;28;20565;-66
2022/08/04 07:03:10;;;;;;;1.37;1.27;;;;;;;25.02;53.03;95302.53;5040000;28;20197;-67
2022/08/04 07:05:39;;;;;;;1.00;0.90;;;;;;;25.46;51.37;95305.41;5048435;28;20200;-67
2022/08/04 07:08:09;;;;;;;1.07;0.97;;;;;;;25.73;50.13;95299.31;5050537;28;20234;-68
2022/08/04 07:10:38;;;;;;;0.77;0.77;;;;;;;25.25;52.49;95302.06;5050505;28;20227;-67
2022/08/04 07:13:06;;;;;;;1.00;0.90;;;;;;;25.72;51.24;95308.47;5042050;28;20680;-68
2022/08/04 07:15:34;;;;;;;2.30;1.17;;;;;;;26.08;50.89;95299.50;5045694;28;20210;-69
2022/08/04 07:18:03;;;;;;;1.70;1.57;;;;;;;26.54;48.81;95296.91;5050593;28;20197;-66
2022/08/04 07:20:31;;;;;;;0.83;0.83;;;;;;;26.34;49.23;95295.25;5050953;28;20193;-67
2022/08/04 07:23:05;;;;;;;1.00;0.90;;;;;;;26.59;47.55;95291.28;5037597;28;20197;-68
2022/08/04 07:25:35;;;;;;;1.43;1.30;;;;;;;26.78;47.01;95287.91;5050336;28;20300;-66
2022/08/04 07:28:25;;;;;;;3.30;1.70;;;;;;;26.67;45.74;95289.53;5039231;28;20192;-66
2022/08/04 07:30:53;;;;;;;0.70;0.70;;;;;;;27.09;45.00;95276.34;5050408;28;20258;-66
2022/08/04 07:33:21;;;;;;;1.03;1.03;;;;;;;26.96;44.93;95267.59;5049571;28;20203;-68
2022/08/04 07:35:52;;;;;;;0.93;0.93;;;;;;;27.06;44.28;95290.50;5049150;28;20265;-68
2022/08/04 07:38:38;;;;;;;1.93;0.83;;;;;;;27.17;44.74;95273.44;5039888;28;20208;-67
2022/08/04 07:41:23;;;;;;;0.73;0.73;;;;;;;27.61;45.73;95280.19;5050372;28;20659;-67
2022/08/04 07:44:08;;;;;;;0.73;0.73;;;;;;;27.02;47.29;95258.91;5050278;28;20242;-66
2022/08/04 07:46:36;;;;;;;0.80;0.60;;;;;;;27.42;46.13;95282.09;5050195;28;20259;-66
2022/08/04 07:49:03;;;;;;;0.33;0.33;;;;;;;27.49;45.89;95280.34;5039455;28;20197;-67
2022/08/04 07:51:31;;;;;;;2.30;1.67;;;;;;;27.97;44.08;95276.34;5047667;28;20208;-68
2022/08/04 07:53:59;;;;;;;8.97;2.47;;;;;;;27.64;44.37;95276.03;5050136;28;20585;-68
2022/08/04 07:56:27;;;;;;;1.00;0.97;;;;;;;27.59;45.18;95268.25;5050363;28;20196;-68
2022/08/04 07:58:54;;;;;;;0.63;0.63;;;;;;;28.06;44.20;95273.41;5050195;28;20193;-66
2022/08/04 08:01:25;;;;;;;0.93;0.93;;;;;;;27.98;44.42;95272.50;5040485;28;20208;-66
2022/08/04 08:03:55;;;;;;;1.47;1.37;;;;;;;28.63;43.45;95271.38;5047046;28;20200;-66
2022/08/04 08:06:23;;;;;;;0.93;0.93;;;;;;;27.87;46.06;95264.19;5049897;28;20671;-67
2022/08/04 08:09:07;;;;;;;0.67;0.60;;;;;;;28.63;44.11;95265.97;5049729;28;20667;-67
2022/08/04 08:11:48;;;;;;;1.27;1.10;;;;;;;28.27;42.55;95260.31;5039469;28;20220;-67
2022/08/04 08:14:35;;;;;;;5.53;1.10;;;;;;;27.53;43.65;95278.50;5037374;28;20196;-70
2022/08/04 08:17:03;;;;;;;1.93;1.73;;;;;;;27.77;42.64;95274.75;5036470;28;20197;-66
2022/08/04 08:19:31;;;;;;;0.87;0.87;;;;;;;27.89;42.52;95272.69;5049654;28;20197;-65
2022/08/04 08:21:59;;;;;;;0.73;0.60;;;;;;;28.53;42.21;95269.31;5038047;28;20683;-70
2022/08/04 08:24:34;;;;;;;5.43;1.80;;;;;;;28.26;41.47;95267.66;5048635;28;20200;-64
2022/08/04 08:27:05;;;;;;;0.53;0.53;;;;;;;28.96;41.27;95274.22;5049844;28;20201;-67
2022/08/04 08:29:34;;;;;;;0.93;0.93;;;;;;;28.73;40.87;95276.19;5050065;28;20196;-66
2022/08/04 08:32:02;;;;;;;0.47;0.47;;;;;;;28.75;39.23;95263.13;5050339;28;20583;-68
2022/08/04 08:34:36;;;;;;;1.43;1.33;;;;;;;28.88;39.31;95272.56;5049726;28;20248;-67
2022/08/04 08:37:22;;;;;;;0.73;0.73;;;;;;;29.14;40.52;95268.34;5049850;28;20296;-68
2022/08/04 08:40:09;;;;;;;3.13;1.23;;;;;;;29.29;41.80;95262.78;5035686;28;20193;-68
2022/08/04 08:42:39;;;;;;;1.63;1.10;;;;;;;29.57;38.97;95275.88;5049697;28;20231;-67
2022/08/04 08:45:29;;;;;;;0.53;0.53;;;;;;;29.24;38.86;95270.41;5051152;28;20236;-66
2022/08/04 08:56:29;;;;;;;0.43;0.43;;;;;;;30.31;40.65;95261.34;5049577;28;20218;-66
2022/08/04 08:59:34;;;;;;;0.93;0.90;;;;;;;30.48;39.14;95258.03;5030310;28;20704;-68
2022/08/04 09:02:38;;;;;;;0.37;0.37;;;;;;;30.71;37.61;95253.19;5046845;28;20197;-68
2022/08/04 09:05:17;;;;;;;0.60;0.60;;;;;;;30.62;38.47;95249.28;5051161;28;20246;-68
2022/08/04 09:08:25;;;;;;;0.80;0.80;;;;;;;30.59;36.52;95245.38;5050968;28;20225;-67
2022/08/04 09:11:22;;;;;;;1.47;0.90;;;;;;;30.62;37.55;95252.72;5050897;28;20683;-68
2022/08/04 09:13:56;;;;;;;0.70;0.70;;;;;;;30.91;37.71;95251.09;5051198;28;20263;-71
2022/08/04 09:16:25;;;;;;;0.53;0.53;;;;;;;30.99;35.21;95243.75;5049950;28;20259;-67
2022/08/04 09:19:07;;;;;;;4.20;1.87;;;;;;;31.04;35.25;95238.78;5052912;28;20630;-68
2022/08/04 09:21:55;;;;;;;0.70;0.70;;;;;;;31.21;34.04;95237.31;5044229;28;20677;-69
2022/08/04 09:24:46;;;;;;;1.37;1.27;;;;;;;31.12;34.56;95234.19;5047048;28;20656;-65
2022/08/04 09:27:18;;;;;;;0.43;0.43;;;;;;;31.15;33.86;95230.75;5045908;28;20331;-67
2022/08/04 09:29:57;;;;;;;0.83;0.83;;;;;;;30.82;33.40;95242.50;5038982;28;20207;-67
2022/08/04 09:32:43;;;;;;;0.47;0.47;;;;;;;30.80;33.76;95248.25;5039405;28;20256;-68
2022/08/04 09:35:10;;;;;;;0.33;0.33;;;;;;;31.13;33.44;95230.34;5041229;28;20250;-70
2022/08/04 09:38:02;;;;;;;0.40;0.40;;;;;;;31.50;33.98;95233.66;5038672;28;20646;-69
2022/08/04 09:40:39;;;;;;;0.43;0.43;;;;;;;32.09;32.69;95232.34;5051129;28;20656;-69
2022/08/04 09:43:37;;;;;;;5.93;1.57;;;;;;;32.29;32.55;95226.19;5038675;28;20188;-67
2022/08/04 09:46:39;;;;;;;1.33;0.90;;;;;;;32.21;32.82;95232.75;5052778;28;20190;-68
2022/08/04 09:49:15;;;;;;;0.77;0.77;;;;;;;32.12;34.84;95226.91;5052149;28;20207;-68
2022/08/04 09:51:42;;;;;;;0.97;0.97;;;;;;;32.30;34.30;95238.56;5051959;28;20658;-66
2022/08/04 09:54:26;;;;;;;1.73;1.03;;;;;;;31.74;33.16;95239.19;5052488;28;20610;-69
2022/08/04 09:57:06;;;;;;;0.90;0.90;;;;;;;32.42;32.46;95235.53;5052281;28;20299;-72
2022/08/04 10:00:03;;;;;;;0.93;0.93;;;;;;;32.12;33.28;95224.22;5050536;28;20266;-68
2022/08/04 10:02:41;;;;;;;0.50;0.50;;;;;;;32.17;33.24;95229.25;5045467;28;20688;-69
2022/08/04 10:05:13;;;;;;;0.97;0.97;;;;;;;31.79;33.77;95229.88;5032448;28;20209;-67
2022/08/04 10:08:04;;;;;;;0.53;0.53;;;;;;;31.93;34.25;95221.84;5031970;28;20719;-68
2022/08/04 10:11:20;;;;;;;0.57;0.57;;;;;;;32.35;33.33;95221.16;5034222;28;20200;-69
2022/08/04 10:13:55;;;;;;;0.40;0.40;;;;;;;32.97;32.29;95221.59;5051331;28;20671;-69
2022/08/04 10:16:43;;;;;;;1.20;1.07;;;;;;;32.49;31.40;95224.69;5039813;28;20261;-72
2022/08/04 10:19:31;;;;;;;0.40;0.40;;;;;;;32.14;32.15;95219.19;5051744;28;20197;-69
2022/08/04 10:22:01;;;;;;;0.50;0.50;;;;;;;32.76;30.52;95211.50;5051785;28;20246;-66
2022/08/04 10:25:16;;;;;;;0.63;0.63;;;;;;;32.62;31.70;95211.50;5031717;28;20248;-69
2022/08/04 10:28:08;;;;;;;0.30;0.30;;;;;;;32.76;30.66;95206.84;5031286;28;20668;-69
2022/08/04 10:30:39;;;;;;;0.50;0.50;;;;;;;32.80;30.79;95213.06;5044627;28;20196;-67
2022/08/04 10:33:48;;;;;;;1.47;0.90;;;;;;;32.67;31.35;95202.97;5037097;28;20671;-70
2022/08/04 10:36:20;;;;;;;1.23;1.17;;;;;;;32.21;31.60;95207.59;5037159;28;20775;-69
2022/08/04 10:38:55;;;;;;;0.33;0.33;;;;;;;32.98;31.97;95206.84;5041693;28;20263;-67
2022/08/04 10:41:41;;;;;;;0.93;0.67;;;;;;;33.11;31.82;95199.84;5050489;28;20192;-67
2022/08/04 10:44:49;;;;;;;0.50;0.50;;;;;;;33.22;31.52;95200.59;5051488;28;20259;-67
2022/08/04 10:47:30;;;;;;;1.13;1.03;;;;;;;33.54;30.21;95202.06;5030620;28;20665;-66
2022/08/04 10:50:00;;;;;;;0.47;0.47;;;;;;;34.20;28.46;95200.19;5035284;28;20250;-68
2022/08/04 10:52:34;;;;;;;0.60;0.60;;;;;;;33.89;28.29;95195.69;5051160;28;20274;-69
2022/08/04 10:55:12;;;;;;;4.47;1.07;;;;;;;34.12;29.09;95192.47;5051208;28;20196;-67
2022/08/04 10:57:45;;;;;;;0.37;0.37;;;;;;;34.12;29.10;95193.25;5050875;28;20723;-64
2022/08/04 11:00:15;;;;;;;0.50;0.50;;;;;;;33.76;29.62;95194.59;5036733;28;20247;-66
2022/08/04 11:02:57;;;;;;;1.27;1.20;;;;;;;34.22;28.56;95186.97;5050885;28;20210;-67
2022/08/04 11:05:57;;;;;;;1.70;1.60;;;;;;;34.13;27.69;95185.84;5049111;28;20193;-69
2022/08/04 11:08:32;;;;;;;0.37;0.37;;;;;;;34.05;26.75;95176.97;5043156;28;20576;-66
2022/08/04 11:11:43;;;;;;;0.70;0.70;;;;;;;34.37;26.68;95177.53;5050838;28;20241;-65
2022/08/04 11:14:38;;;;;;;2.80;1.27;;;;;;;34.56;25.83;95174.28;5029103;28;20197;-69
2022/08/04 11:17:13;;;;;;;0.63;0.63;;;;;;;33.94;24.93;95176.25;5044704;28;20200;-68
2022/08/04 11:20:00;;;;;;;0.23;0.23;;;;;;;34.39;26.28;95174.41;5043838;28;20221;-69
2022/08/04 11:22:59;;;;;;;0.87;0.87;;;;;;;34.09;26.37;95175.00;5049410;28;20278;-69
2022/08/04 11:25:32;;;;;;;0.67;0.67;;;;;;;34.83;25.67;95170.94;5038341;28;20247;-67
2022/08/04 11:28:02;;;;;;;0.30;0.30;;;;;;;34.69;23.49;95166.38;5049592;28;20228;-68
2022/08/04 11:31:03;;;;;;;1.13;0.70;;;;;;;35.05;24.20;95166.88;5050554;28;20621;-67
2022/08/04 11:33:45;;;;;;;0.40;0.40;;;;;;;34.58;25.57;95174.66;5040805;28;20235;-66
2022/08/04 11:36:23;;;;;;;0.60;0.57;;;;;;;34.92;25.72;95163.84;5047681;28;20200;-68
2022/08/04 11:39:29;;;;;;;0.67;0.67;;;;;;;34.31;23.85;95162.81;5049947;28;20200;-69
2022/08/04 11:42:21;;;;;;;0.50;0.47;;;;;;;34.48;25.00;95159.22;5047830;28;20608;-67
2022/08/04 11:44:54;;;;;;;0.30;0.30;;;;;;;34.47;24.45;95165.06;5049372;28;20297;-69
2022/08/04 11:47:31;;;;;;;0.50;0.50;;;;;;;33.91;26.68;95170.81;5039418;28;20200;-69
2022/08/04 11:50:07;;;;;;;0.63;0.63;;;;;;;33.92;25.65;95173.16;5034669;28;20188;-67
2022/08/04 11:52:38;;;;;;;0.73;0.73;;;;;;;34.12;25.90;95162.56;5050019;28;20256;-65
2022/08/04 11:55:10;;;;;;;0.50;0.50;;;;;;;34.18;25.59;95159.00;5047490;28;20205;-66
2022/08/04 11:57:38;;;;;;;0.40;0.40;;;;;;;34.42;26.11;95152.59;5047893;28;20252;-71
2022/08/04 12:00:08;;;;;;;0.67;0.67;;;;;;;35.04;25.31;95155.19;5049701;28;20200;-66
2022/08/04 12:02:38;;;;;;;0.60;0.60;;;;;;;34.74;24.71;95152.38;5032315;28;20200;-64
2022/08/04 12:05:08;;;;;;;1.33;1.03;;;;;;;35.03;25.33;95153.66;5044290;28;20848;-68
2022/08/04 12:08:02;;;;;;;0.47;0.47;;;;;;;34.66;23.33;95151.66;5046632;28;20211;-69
2022/08/04 12:10:46;;;;;;;0.73;0.57;;;;;;;34.48;23.92;95151.03;5030986;28;20197;-70
2022/08/04 12:13:40;;;;;;;0.77;0.50;;;;;;;34.49;24.64;95152.56;5041439;28;20220;-70
2022/08/04 12:16:16;;;;;;;0.47;0.47;;;;;;;34.48;25.67;95163.88;5037883;28;20623;-63
2022/08/04 12:18:53;;;;;;;0.40;0.40;;;;;;;34.50;25.39;95165.03;5057519;28;20201;-66
2022/08/04 12:21:47;;;;;;;0.30;0.30;;;;;;;33.69;23.87;95165.50;5064105;28;20219;-65
2022/08/04 12:24:26;;;;;;;0.20;0.20;;;;;;;33.85;24.74;95164.25;5064004;28;20200;-63
2022/08/04 12:26:58;;;;;;;0.20;0.20;;;;;;;33.64;25.65;95165.13;5063250;28;20208;-69
2022/08/04 12:29:30;;;;;;;1.00;1.00;;;;;;;33.84;25.08;95149.88;5058847;28;20197;-63
2022/08/04 12:32:02;;;;;;;0.77;0.77;;;;;;;34.03;24.04;95152.13;5044056;28;20217;-65
2022/08/04 12:34:44;;;;;;;0.30;0.30;;;;;;;33.95;24.25;95144.38;5052921;28;20189;-64
2022/08/04 12:37:22;;;;;;;0.30;0.30;;;;;;;34.02;26.13;95156.00;5051257;28;20212;-66
2022/08/04 12:39:52;;;;;;;0.70;0.67;;;;;;;34.16;25.81;95153.19;5066034;28;20219;-65
2022/08/04 12:43:21;;;;;;;0.20;0.20;;;;;;;34.03;24.71;95135.81;5066529;28;20211;-63
2022/08/04 12:45:50;;;;;;;0.40;0.40;;;;;;;33.88;24.34;95133.56;5064881;28;20232;-69
2022/08/04 12:48:18;;;;;;;0.23;0.23;;;;;;;34.09;23.97;95128.75;5048595;28;20562;-73
2022/08/04 12:50:52;;;;;;;0.47;0.47;;;;;;;34.04;23.68;95126.47;5034803;28;20232;-67